KBAD

Barksdale AFB Airport

Bossier City, Louisiana, USA
METAR KBAD 122156Z 17007KT 10SM FEW035 BKN050 15/10 A3000 RMK AO2A SLPNO WND DATA ESTMD ALSTG ESTMD $
Observed Flight Rules
Dec-12 @ 21:56 UTC (21 minutes ago) Visual Flight Rules
Wind Visibility Clouds
170° at 7 knots 10 miles
  • Few at 3,500' AGL
  • Broken at 5,000' AGL
Temperatures Readings
Current 15°C / 59°F
Dewpoint 10°C / 50°F
Humidity 72%
Altimeter 30" Hg
Pressure 1016 hPa
Elevation 51
METAR KBAD 122156Z 17007KT 10SM FEW035 BKN050 15/10 A3000 RMK AO2A SLPNO WND DATA ESTMD ALSTG ESTMD $
Observed Flight Rules
Dec-12 @ 21:56 UTC
(21 minutes ago)
VFR
Wind Visibility
170° at 7 knots 10 miles
Clouds
  • Few at 3,500' AGL
  • Broken at 5,000' AGL
Temperature Dewpoint
15°C / 59°F 10°C / 50°F
Humidity Altimeter Pressure
72% 30" Hg 1016 hPa